Terminal Aerodrome Forecast
Issued by NWS

Home | Current Version | Previous Version | Text Only | Print | Product List | Glossary Off
Versions: 1 2 3 4 5 6 7 8 9 10 11 12 13 14 15 16

000
FTUS43 KBIS 311413 AAB
TAFDIK
TAF AMD
KDIK 311413Z 3114/0112 13014KT P6SM OVC003
      TEMPO 3115/3116 SCT003
     FM311600 15017G24KT P6SM FEW006 FEW250
     FM011000 16013KT P6SM FEW250 WS005/19030KT=

USA.gov is the U.S. government's official web portal to all federal, state and local government web resources and services.